createdAt,value
2024-01-09T00:01:28.966Z,5.6
2024-01-09T00:03:28.618Z,3.8
2024-01-09T00:05:28.188Z,3.2
2024-01-09T00:07:27.746Z,3.6
2024-01-09T00:09:27.306Z,5.4
2024-01-09T00:11:27.001Z,6.2
2024-01-09T00:13:26.588Z,4.2
2024-01-09T00:15:26.154Z,5.9
2024-01-09T00:17:25.799Z,4.5
2024-01-09T00:19:25.387Z,4.6
2024-01-09T00:21:25.015Z,4.9
2024-01-09T00:23:24.658Z,4.2
2024-01-09T00:25:24.190Z,4.9
2024-01-09T00:27:23.774Z,4.2
2024-01-09T00:29:23.399Z,5.7
2024-01-09T00:31:23.007Z,3.3
2024-01-09T00:33:22.806Z,3.3
2024-01-09T00:35:22.233Z,4.7
2024-01-09T00:37:21.855Z,5.2
2024-01-09T00:39:21.393Z,5.9
2024-01-09T00:41:20.985Z,9.8
2024-01-09T00:43:20.549Z,4.3
2024-01-09T00:45:20.156Z,4.9
2024-01-09T00:47:19.765Z,5.6
2024-01-09T00:49:19.459Z,4.4
2024-01-09T00:51:18.956Z,4
2024-01-09T00:53:18.640Z,6.8
2024-01-09T00:55:18.161Z,5
2024-01-09T00:57:19.331Z,4.1
2024-01-09T00:59:17.377Z,6.1
2024-01-09T01:01:17.006Z,5.8
2024-01-09T01:03:16.636Z,4.8
2024-01-09T01:05:16.254Z,7.2
2024-01-09T01:07:15.786Z,4.2
2024-01-09T01:09:15.378Z,6
2024-01-09T01:11:15.075Z,5.2
2024-01-09T01:13:14.591Z,3.7
2024-01-09T01:15:14.215Z,4.3
2024-01-09T01:17:13.863Z,5.1
2024-01-09T01:19:13.414Z,4.7
2024-01-09T01:21:12.965Z,4.5
2024-01-09T01:23:12.609Z,6.5
2024-01-09T01:25:12.185Z,4
2024-01-09T01:27:11.858Z,4.7
2024-01-09T01:29:11.406Z,5.3
2024-01-09T01:31:11.093Z,3.9
2024-01-09T01:33:10.852Z,4.1
2024-01-09T01:35:10.201Z,5.5
2024-01-09T01:37:09.760Z,3.6
2024-01-09T01:39:09.342Z,4.2
2024-01-09T01:41:09.031Z,3.2
2024-01-09T01:43:08.546Z,4.8
2024-01-09T01:45:08.149Z,3
2024-01-09T01:47:07.869Z,3.1
2024-01-09T01:49:07.410Z,3.7
2024-01-09T01:51:07.016Z,3.3
2024-01-09T01:53:06.647Z,2.8
2024-01-09T01:55:06.187Z,5.9
2024-01-09T01:57:05.791Z,3.2
2024-01-09T01:59:05.376Z,5.3
2024-01-09T02:01:04.989Z,5.4
2024-01-09T02:03:04.658Z,5.9
2024-01-09T02:05:04.216Z,4.9
2024-01-09T02:07:03.796Z,5
2024-01-09T02:09:03.388Z,4.8
2024-01-09T02:11:02.914Z,4
2024-01-09T02:13:02.541Z,4.2
2024-01-09T02:15:02.174Z,2.9
2024-01-09T02:17:01.737Z,3.4
2024-01-09T02:19:01.390Z,2.9
2024-01-09T02:21:00.940Z,3.5
2024-01-09T02:23:00.563Z,4.7
2024-01-09T02:25:00.222Z,4.5
2024-01-09T02:27:05.039Z,3.9
2024-01-09T02:28:59.359Z,4.1
2024-01-09T02:30:59.028Z,3.3
2024-01-09T02:32:58.754Z,4
2024-01-09T02:34:58.153Z,4.1
2024-01-09T02:36:57.781Z,3.5
2024-01-09T02:38:57.384Z,4.3
2024-01-09T02:40:56.982Z,5.1
2024-01-09T02:42:56.565Z,3.9
2024-01-09T02:44:56.295Z,3.8
2024-01-09T02:46:55.800Z,2.8
2024-01-09T02:48:55.611Z,3.6
2024-01-09T02:50:55.047Z,3.7
2024-01-09T02:52:54.592Z,3.1
2024-01-09T02:54:54.189Z,3.8
2024-01-09T02:56:53.811Z,3.1
2024-01-09T02:58:53.326Z,4.1
2024-01-09T03:00:52.987Z,4
2024-01-09T03:02:52.606Z,4.2
2024-01-09T03:04:52.120Z,3.5
2024-01-09T03:06:51.957Z,4.4
2024-01-09T03:08:51.401Z,5
2024-01-09T03:10:50.898Z,3.6
2024-01-09T03:12:50.520Z,4.4
2024-01-09T03:14:50.147Z,4.3
2024-01-09T03:16:49.673Z,5.6
2024-01-09T03:18:49.301Z,3.5
2024-01-09T03:20:48.872Z,3
2024-01-09T03:22:48.436Z,4.6
2024-01-09T03:24:48.044Z,4.6
2024-01-09T03:26:47.739Z,4.6
2024-01-09T03:28:47.260Z,3.7
2024-01-09T03:30:46.924Z,3.9
2024-01-09T03:32:46.583Z,4.1
2024-01-09T03:34:46.054Z,3.6
2024-01-09T03:36:45.665Z,2.9
2024-01-09T03:38:45.298Z,4.1
2024-01-09T03:40:44.846Z,4
2024-01-09T03:42:44.489Z,3.1
2024-01-09T03:44:44.062Z,3.6
2024-01-09T03:46:43.587Z,2.2
2024-01-09T03:48:43.407Z,2.7
2024-01-09T03:50:42.856Z,3.5
2024-01-09T03:52:42.395Z,3.7
2024-01-09T03:54:42.031Z,1.4
2024-01-09T03:56:41.633Z,2.7
2024-01-09T03:58:41.207Z,3.5
2024-01-09T04:00:48.936Z,2.6
2024-01-09T04:02:09.089Z,2.6
2024-01-09T04:02:40.387Z,2.3
2024-01-09T04:04:39.977Z,2.6
2024-01-09T04:06:39.624Z,3.3
2024-01-09T04:08:39.243Z,3.1
2024-01-09T04:10:38.788Z,4.1
2024-01-09T04:12:38.387Z,2.8
2024-01-09T04:14:38.116Z,3.4
2024-01-09T04:16:37.519Z,3.1
2024-01-09T04:18:37.231Z,2.5
2024-01-09T04:20:36.764Z,2.4
2024-01-09T04:22:36.303Z,1.8
2024-01-09T04:24:35.985Z,3.5
2024-01-09T04:26:35.498Z,1.8
2024-01-09T04:28:35.044Z,3.2
2024-01-09T04:30:34.662Z,4.3
2024-01-09T04:32:34.391Z,3.9
2024-01-09T04:34:33.966Z,3.3
2024-01-09T04:36:33.422Z,3.6
2024-01-09T04:38:33.038Z,3
2024-01-09T04:40:32.636Z,2.8
2024-01-09T04:42:32.187Z,3.1
2024-01-09T04:44:31.827Z,1.6
2024-01-09T04:46:31.354Z,2.9
2024-01-09T04:48:31.068Z,2.6
2024-01-09T04:50:30.596Z,2.8
2024-01-09T04:52:30.155Z,3.3
2024-01-09T04:54:29.824Z,3
2024-01-09T04:56:29.404Z,3.2
2024-01-09T04:58:28.961Z,3.8
2024-01-09T05:00:28.526Z,3.4
2024-01-09T05:02:28.188Z,2.5
2024-01-09T05:04:27.686Z,3
2024-01-09T05:06:27.337Z,3.3
2024-01-09T05:08:27.018Z,1.6
2024-01-09T05:10:26.548Z,2.3
2024-01-09T05:12:26.067Z,3.1
2024-01-09T05:14:25.683Z,27.7
2024-01-09T05:16:25.212Z,8.7
2024-01-09T05:18:24.971Z,4.2
2024-01-09T05:20:24.426Z,4.9
2024-01-09T05:22:23.929Z,3.9
2024-01-09T05:24:23.660Z,6.3
2024-01-09T05:26:23.146Z,3.8
2024-01-09T05:28:22.717Z,5.7
2024-01-09T05:30:22.306Z,11.3
2024-01-09T05:32:21.950Z,8.2
2024-01-09T05:34:21.515Z,6.6
2024-01-09T05:36:21.106Z,7.5
2024-01-09T05:38:20.673Z,7.9
2024-01-09T05:40:20.205Z,11.3
2024-01-09T05:42:19.780Z,11.2
2024-01-09T05:44:19.401Z,13.5
2024-01-09T05:46:18.973Z,3.5
2024-01-09T05:48:18.725Z,16.1
2024-01-09T05:50:18.177Z,5.8
2024-01-09T05:52:17.714Z,6.1
2024-01-09T05:54:17.322Z,4.6
2024-01-09T05:56:16.911Z,8.7
2024-01-09T05:58:16.481Z,15.4
2024-01-09T06:00:16.257Z,11.3
2024-01-09T06:02:15.758Z,5.8
2024-01-09T06:04:15.284Z,9.7
2024-01-09T06:06:14.954Z,6.7
2024-01-09T06:08:14.510Z,3.6
2024-01-09T06:10:14.037Z,4.6
2024-01-09T06:12:14.823Z,4.2
2024-01-09T06:14:13.236Z,6.4
2024-01-09T06:16:12.835Z,2.6
2024-01-09T06:18:12.591Z,5.7
2024-01-09T06:20:12.098Z,8
2024-01-09T06:22:11.535Z,6.4
2024-01-09T06:24:11.133Z,4.3
2024-01-09T06:26:10.778Z,6.6
2024-01-09T06:28:11.820Z,7.8
2024-01-09T06:30:10.013Z,4.3
2024-01-09T06:32:09.592Z,3.7
2024-01-09T06:34:09.202Z,4.8
2024-01-09T06:36:08.685Z,6.5
2024-01-09T06:38:08.274Z,3.4
2024-01-09T06:40:07.886Z,5.4
2024-01-09T06:42:07.498Z,7.3
2024-01-09T06:44:07.072Z,5.4
2024-01-09T06:46:06.698Z,17.2
2024-01-09T06:48:06.392Z,8.6
2024-01-09T06:52:05.449Z,6.6
2024-01-09T06:54:05.043Z,8.6
2024-01-09T06:56:04.614Z,9.1
2024-01-09T06:58:04.226Z,7.3
2024-01-09T07:00:03.890Z,8
2024-01-09T07:02:03.350Z,12.4
2024-01-09T07:04:03.034Z,4.2
2024-01-09T07:06:02.605Z,6.1
2024-01-09T07:08:02.136Z,5.9
2024-01-09T07:10:01.775Z,14.6
2024-01-09T07:12:01.399Z,6
2024-01-09T07:14:00.945Z,21
2024-01-09T07:16:00.511Z,10.4
2024-01-09T07:18:00.390Z,11.1
2024-01-09T07:19:59.690Z,20
2024-01-09T07:21:59.314Z,13.1
2024-01-09T07:23:58.908Z,5
2024-01-09T07:25:58.466Z,7.2
2024-01-09T07:27:58.087Z,5.1
2024-01-09T07:29:57.692Z,11.7
2024-01-09T07:31:57.270Z,5.5
2024-01-09T07:33:57.009Z,9.5
2024-01-09T07:35:56.541Z,6
2024-01-09T07:37:56.071Z,5.3
2024-01-09T07:39:55.735Z,3.9
2024-01-09T07:41:55.387Z,6.5
2024-01-09T07:43:54.945Z,2.1
2024-01-09T07:45:54.517Z,6.4
2024-01-09T07:47:54.231Z,2.6
2024-01-09T07:49:53.702Z,4.2
2024-01-09T07:51:53.313Z,2.8
2024-01-09T07:53:52.962Z,2.9
2024-01-09T07:55:52.539Z,5.3
2024-01-09T07:57:52.089Z,3.9
2024-01-09T07:59:51.716Z,2.3
2024-01-09T08:01:51.262Z,7.2
2024-01-09T08:03:50.909Z,7
2024-01-09T08:05:50.758Z,5
2024-01-09T08:07:50.053Z,3.7
2024-01-09T08:09:49.652Z,6.2
2024-01-09T08:11:49.334Z,5.2
2024-01-09T08:13:48.941Z,4.8
2024-01-09T08:15:48.492Z,5.7
2024-01-09T08:17:48.152Z,7.2
2024-01-09T08:19:47.960Z,5.9
2024-01-09T08:21:47.264Z,5
2024-01-09T08:23:46.901Z,4
2024-01-09T08:25:46.502Z,3
2024-01-09T08:27:46.084Z,5.4
2024-01-09T08:29:45.726Z,4.7
2024-01-09T08:31:45.358Z,4.7
2024-01-09T08:33:45.028Z,5.6
2024-01-09T08:35:44.518Z,6.8
2024-01-09T08:37:44.116Z,5.7
2024-01-09T08:39:43.690Z,4.4
2024-01-09T08:41:43.424Z,4.2
2024-01-09T08:43:42.934Z,3.2
2024-01-09T08:45:42.457Z,8.5
2024-01-09T08:47:42.191Z,11.5
2024-01-09T08:49:41.738Z,8.1
2024-01-09T08:51:41.301Z,10.3
2024-01-09T08:53:40.903Z,11.5
2024-01-09T08:55:40.504Z,11
2024-01-09T08:57:40.073Z,14.2
2024-01-09T08:59:39.742Z,21.9
2024-01-09T09:01:39.341Z,12
2024-01-09T09:03:38.988Z,13.3
2024-01-09T09:05:38.714Z,14.7
2024-01-09T09:07:38.175Z,13.5
2024-01-09T09:09:37.799Z,17.7
2024-01-09T09:11:37.485Z,15.4
2024-01-09T09:13:37.044Z,17.3
2024-01-09T09:15:36.604Z,7.6
2024-01-09T09:17:36.321Z,8.1
2024-01-09T09:19:35.825Z,7.9
2024-01-09T09:21:35.420Z,11.7
2024-01-09T09:23:35.110Z,10.7
2024-01-09T09:25:34.717Z,18.2
2024-01-09T09:27:34.230Z,26
2024-01-09T09:29:37.990Z,8.8
2024-01-09T09:31:33.612Z,9.1
2024-01-09T09:33:33.354Z,6.4
2024-01-09T09:35:32.807Z,3.4
2024-01-09T09:37:32.369Z,7.4
2024-01-09T09:39:32.070Z,5.2
2024-01-09T09:41:31.691Z,10.6
2024-01-09T09:43:31.284Z,16.1
2024-01-09T09:45:30.945Z,11.4
2024-01-09T09:47:30.541Z,6.5
2024-01-09T09:49:30.211Z,7.2
2024-01-09T09:51:29.768Z,5.9
2024-01-09T09:53:29.424Z,8.6
2024-01-09T09:55:28.990Z,11.7
2024-01-09T09:57:28.605Z,2.9
2024-01-09T09:59:28.314Z,6.6
2024-01-09T10:01:27.949Z,10.6
2024-01-09T10:03:27.512Z,5
2024-01-09T10:05:27.170Z,6.7
2024-01-09T10:07:26.763Z,13.4
2024-01-09T10:09:26.422Z,5
2024-01-09T10:11:26.076Z,4.3
2024-01-09T10:13:25.660Z,12.1
2024-01-09T10:15:25.375Z,9.6
2024-01-09T10:17:25.065Z,3.3
2024-01-09T10:19:24.683Z,6.3
2024-01-09T10:21:24.164Z,13.9
2024-01-09T10:23:23.856Z,8.6
2024-01-09T10:25:23.470Z,6.8
2024-01-09T10:27:23.128Z,14.6
2024-01-09T10:29:22.694Z,13
2024-01-09T10:31:22.357Z,5.8
2024-01-09T10:33:22.199Z,8.7
2024-01-09T10:35:21.621Z,4.4
2024-01-09T10:37:21.202Z,7.4
2024-01-09T10:39:20.881Z,5
2024-01-09T10:41:20.623Z,13
2024-01-09T10:43:20.163Z,4.7
2024-01-09T10:45:19.738Z,4.3
2024-01-09T10:47:19.630Z,3.5
2024-01-09T10:49:22.471Z,11.5
2024-01-09T10:51:18.672Z,10.9
2024-01-09T10:53:18.268Z,19.1
2024-01-09T10:55:17.912Z,11.6
2024-01-09T10:57:17.561Z,8.2
2024-01-09T10:59:17.145Z,14.9
2024-01-09T11:01:17.202Z,6.5
2024-01-09T11:03:16.461Z,9.9
2024-01-09T11:05:16.199Z,6.9
2024-01-09T11:07:15.667Z,14.6
2024-01-09T11:09:15.274Z,11.7
2024-01-09T11:11:14.939Z,10.1
2024-01-09T11:13:14.561Z,11.3
2024-01-09T11:15:14.155Z,13.7
2024-01-09T11:17:13.785Z,17.2
2024-01-09T11:19:13.523Z,16.3
2024-01-09T11:21:13.083Z,18.5
2024-01-09T11:23:12.630Z,35.4
2024-01-09T11:25:12.316Z,13.9
2024-01-09T11:27:11.927Z,17
2024-01-09T11:29:11.528Z,5.4
2024-01-09T11:31:11.296Z,16.2
2024-01-09T11:33:10.884Z,25.1
2024-01-09T11:35:10.432Z,7.4
2024-01-09T11:37:10.032Z,21.4
2024-01-09T11:39:09.635Z,23.2
2024-01-09T11:41:09.326Z,16.7
2024-01-09T11:43:08.869Z,27.8
2024-01-09T11:45:08.547Z,21.8
2024-01-09T11:47:08.175Z,10.6
2024-01-09T11:49:08.290Z,15.5
2024-01-09T11:51:07.444Z,32.2
2024-01-09T11:53:07.025Z,25.1
2024-01-09T11:55:06.686Z,14.2
2024-01-09T11:57:06.377Z,7.6
2024-01-09T11:59:05.905Z,17
2024-01-09T12:01:05.526Z,36.3
2024-01-09T12:03:05.264Z,13.7
2024-01-09T12:05:04.832Z,20.7
2024-01-09T12:07:04.541Z,5.4
2024-01-09T12:09:04.116Z,6.4
2024-01-09T12:11:03.780Z,15
2024-01-09T12:13:03.319Z,42.4
2024-01-09T12:15:02.950Z,5.2
2024-01-09T12:17:02.621Z,4.9
2024-01-09T12:19:02.881Z,16.9
2024-01-09T12:21:01.914Z,32.1
2024-01-09T12:23:01.453Z,19.5
2024-01-09T12:25:01.125Z,13.4
2024-01-09T12:27:00.760Z,9.8
2024-01-09T12:29:00.352Z,14.6
2024-01-09T12:31:01.746Z,22.4
2024-01-09T12:32:59.989Z,20.3
2024-01-09T12:34:59.266Z,26.1
2024-01-09T12:37:01.275Z,10.3
2024-01-09T12:38:58.814Z,13.9
2024-01-09T12:40:58.195Z,14.8
2024-01-09T12:42:59.468Z,19.7
2024-01-09T12:44:57.549Z,30.8
2024-01-09T12:46:57.109Z,19.9
2024-01-09T12:48:56.834Z,11.3
2024-01-09T12:50:56.500Z,28.6
2024-01-09T12:52:55.982Z,25.5
2024-01-09T12:54:56.253Z,6.8
2024-01-09T12:56:55.289Z,5.1
2024-01-09T12:58:54.855Z,5.1
2024-01-09T13:00:54.553Z,4.5
2024-01-09T13:02:54.231Z,5.8
2024-01-09T13:04:53.779Z,5.9
2024-01-09T13:06:53.446Z,26.4
2024-01-09T13:08:53.059Z,11.8
2024-01-09T13:10:52.698Z,5.4
2024-01-09T13:12:52.291Z,5.1
2024-01-09T13:14:52.029Z,11.6
2024-01-09T13:16:51.562Z,14.6
2024-01-09T13:18:51.509Z,7.1
2024-01-09T13:20:50.959Z,8.2
2024-01-09T13:24:50.181Z,8.4
2024-01-09T13:26:49.796Z,8.4
2024-01-09T13:30:51.678Z,6.3
2024-01-09T13:32:48.858Z,8.2
2024-01-09T13:34:48.372Z,12.3
2024-01-09T13:36:47.956Z,12.7
2024-01-09T13:38:47.614Z,23.5
2024-01-09T13:40:47.263Z,17.2
2024-01-09T13:42:46.851Z,24.8
2024-01-09T13:44:46.564Z,28.1
2024-01-09T13:46:46.169Z,16.9
2024-01-09T13:48:45.888Z,11.1
2024-01-09T13:51:49.007Z,26.2
2024-01-09T13:52:45.063Z,26.4
2024-01-09T13:54:44.653Z,8.7
2024-01-09T13:56:44.299Z,5.9
2024-01-09T13:58:44.019Z,17.1
2024-01-09T14:00:43.586Z,10.8
2024-01-09T14:02:43.228Z,18.7
2024-01-09T14:04:42.816Z,15
2024-01-09T14:06:42.440Z,6
2024-01-09T14:08:42.229Z,5.1
2024-01-09T14:10:41.792Z,5.7
2024-01-09T14:12:41.466Z,15.6
2024-01-09T14:14:41.011Z,18.8
2024-01-09T14:16:40.716Z,14.4
2024-01-09T14:18:40.372Z,18.6
2024-01-09T14:20:39.920Z,15.3
2024-01-09T14:22:39.691Z,10.8
2024-01-09T14:24:39.224Z,14
2024-01-09T14:26:38.849Z,9.7
2024-01-09T14:28:38.610Z,12.1
2024-01-09T14:30:38.250Z,15.2
2024-01-09T14:32:37.876Z,9.7
2024-01-09T14:34:37.554Z,10.3
2024-01-09T14:36:37.107Z,10.4
2024-01-09T14:38:36.680Z,17.4
2024-01-09T14:40:36.335Z,12.5
2024-01-09T14:42:35.965Z,22.6
2024-01-09T14:44:35.623Z,10.5
2024-01-09T14:46:35.311Z,8.9
2024-01-09T14:48:34.936Z,7.8
2024-01-09T14:50:34.503Z,8.1
2024-01-09T14:52:34.179Z,9.6
2024-01-09T14:54:33.805Z,9.8
2024-01-09T14:56:33.406Z,8.5
2024-01-09T14:58:33.051Z,7.9
2024-01-09T15:00:32.654Z,10.4
2024-01-09T15:02:32.381Z,9.8
2024-01-09T15:04:31.978Z,13.3
2024-01-09T15:06:31.587Z,7.5
2024-01-09T15:08:31.243Z,6.7
2024-01-09T15:10:30.918Z,7.9
2024-01-09T15:12:31.525Z,16.5
2024-01-09T15:14:30.326Z,18.1
2024-01-09T15:16:29.805Z,22.8
2024-01-09T15:18:29.543Z,15.9
2024-01-09T15:20:29.124Z,11
2024-01-09T15:22:28.750Z,9
2024-01-09T15:24:28.426Z,7.4
2024-01-09T15:26:27.992Z,16.4
2024-01-09T15:28:27.622Z,24
2024-01-09T15:30:27.319Z,11
2024-01-09T15:32:27.028Z,7.3
2024-01-09T15:34:26.637Z,7.2
2024-01-09T15:36:26.146Z,6.4
2024-01-09T15:38:25.832Z,6.6
2024-01-09T15:40:25.463Z,7.6
2024-01-09T15:42:25.135Z,7.9
2024-01-09T15:44:24.708Z,6.2
2024-01-09T15:46:24.402Z,16.8
2024-01-09T15:48:24.144Z,7.6
2024-01-09T15:50:23.720Z,6.3
2024-01-09T15:52:23.267Z,6.1
2024-01-09T15:54:24.566Z,7.6
2024-01-09T15:56:22.567Z,17.3
2024-01-09T15:58:22.180Z,18.3
2024-01-09T16:00:21.789Z,21.1
2024-01-09T16:02:21.598Z,22.3
2024-01-09T16:04:21.129Z,17
2024-01-09T16:06:20.764Z,12.7
2024-01-09T16:08:20.318Z,30.1
2024-01-09T16:10:20.934Z,32.8
2024-01-09T16:12:19.620Z,16.5
2024-01-09T16:14:19.322Z,14.3
2024-01-09T16:16:18.944Z,14.6
2024-01-09T16:18:18.708Z,11.9
2024-01-09T16:20:18.160Z,19.8
2024-01-09T16:22:17.764Z,14
2024-01-09T16:24:17.460Z,13.3
2024-01-09T16:26:18.129Z,16.1
2024-01-09T16:28:16.703Z,19
2024-01-09T16:30:16.327Z,17.8
2024-01-09T16:32:16.146Z,20.4
2024-01-09T16:34:15.767Z,20.1
2024-01-09T16:36:15.209Z,20.4
2024-01-09T16:38:14.902Z,19.3
2024-01-09T16:40:14.480Z,22.3
2024-01-09T16:42:14.182Z,24.4
2024-01-09T16:44:13.786Z,27.2
2024-01-09T16:46:13.453Z,25.9
2024-01-09T16:48:13.084Z,29.2
2024-01-09T16:50:12.662Z,31.7
2024-01-09T16:52:12.248Z,30.7
2024-01-09T16:54:11.905Z,35.1
2024-01-09T16:56:11.620Z,34.9
2024-01-09T16:58:11.135Z,37.2
2024-01-09T17:00:10.722Z,37
2024-01-09T17:02:10.468Z,36.4
2024-01-09T17:04:10.061Z,38.5
2024-01-09T17:06:09.702Z,49.7
2024-01-09T17:08:09.415Z,48.3
2024-01-09T17:10:08.968Z,46.8
2024-01-09T17:12:08.571Z,46.9
2024-01-09T17:14:08.284Z,46.2
2024-01-09T17:16:07.857Z,44.2
2024-01-09T17:18:07.544Z,43.6
2024-01-09T17:20:07.165Z,43.9
2024-01-09T17:22:06.695Z,43.9
2024-01-09T17:24:06.329Z,43.1
2024-01-09T17:26:05.988Z,43.4
2024-01-09T17:28:05.609Z,41
2024-01-09T17:30:05.226Z,31.4
2024-01-09T17:32:04.930Z,29.7
2024-01-09T17:34:04.573Z,34.5
2024-01-09T17:36:04.123Z,36.5
2024-01-09T17:38:03.778Z,72.2
2024-01-09T17:40:03.327Z,110.4
2024-01-09T17:42:02.949Z,76.1
2024-01-09T17:44:02.592Z,55.7
2024-01-09T17:46:02.256Z,48.6
2024-01-09T17:48:01.928Z,44
2024-01-09T17:50:01.586Z,57.1
2024-01-09T17:52:01.076Z,40.9
2024-01-09T17:54:00.743Z,52.9
2024-01-09T17:56:00.471Z,68.9
2024-01-09T17:57:59.972Z,74.6
2024-01-09T17:59:59.599Z,42.3
2024-01-09T18:01:59.332Z,22.3
2024-01-09T18:03:58.910Z,40.2
2024-01-09T18:06:01.672Z,53.7
2024-01-09T18:07:58.177Z,59.2
2024-01-09T18:09:57.782Z,83.1
2024-01-09T18:11:57.465Z,77.8
2024-01-09T18:13:57.064Z,69.3
2024-01-09T18:15:56.649Z,69.2
2024-01-09T18:17:56.452Z,60.5
2024-01-09T18:19:56.170Z,62.9
2024-01-09T18:21:55.548Z,72
2024-01-09T18:23:55.161Z,61.5
2024-01-09T18:25:54.889Z,59.5
2024-01-09T18:27:54.423Z,58.9
2024-01-09T18:29:54.177Z,50.5
2024-01-09T18:31:53.740Z,42.8
2024-01-09T18:33:53.414Z,32.6
2024-01-09T18:35:52.936Z,33.4
2024-01-09T18:37:52.626Z,37.3
2024-01-09T18:39:52.181Z,38.8
2024-01-09T18:41:51.808Z,35.6
2024-01-09T18:43:51.514Z,34.8
2024-01-09T18:45:51.078Z,31.3
2024-01-09T18:47:50.717Z,31.8
2024-01-09T18:49:50.490Z,30
2024-01-09T18:51:49.982Z,29.9
2024-01-09T18:53:49.834Z,29.2
2024-01-09T18:55:49.286Z,30.8
2024-01-09T18:57:48.872Z,30.9
2024-01-09T18:59:48.476Z,33.1
2024-01-09T19:01:48.220Z,29.1
2024-01-09T19:05:47.404Z,31.4
2024-01-09T19:07:47.011Z,34.1
2024-01-09T19:09:46.577Z,33.8
2024-01-09T19:11:46.194Z,41.7
2024-01-09T19:13:45.928Z,41.5
2024-01-09T19:15:45.498Z,41.8
2024-01-09T19:17:45.181Z,41.7
2024-01-09T19:19:47.536Z,41.1
2024-01-09T19:21:44.449Z,41.4
2024-01-09T19:23:44.262Z,38.8
2024-01-09T19:25:44.674Z,34.8
2024-01-09T19:27:43.234Z,29.1
2024-01-09T19:29:42.976Z,31.3
2024-01-09T19:31:42.808Z,29.2
2024-01-09T19:33:42.179Z,40.3
2024-01-09T19:35:42.031Z,42.6
2024-01-09T19:37:41.468Z,34.2
2024-01-09T19:39:41.048Z,32
2024-01-09T19:41:40.681Z,29.9
2024-01-09T19:43:40.301Z,26.8
2024-01-09T19:45:39.919Z,28.1
2024-01-09T19:47:39.582Z,39
2024-01-09T19:49:39.203Z,49.7
2024-01-09T19:51:38.817Z,50
2024-01-09T19:53:38.458Z,42.3
2024-01-09T19:55:38.117Z,43
2024-01-09T19:57:40.038Z,48.2
2024-01-09T19:59:39.998Z,47.7
2024-01-09T20:01:37.158Z,43.4
2024-01-09T20:03:36.505Z,40.3
2024-01-09T20:05:36.239Z,43.8
2024-01-09T20:07:35.802Z,37.8
2024-01-09T20:09:35.364Z,36.4
2024-01-09T20:11:34.997Z,30.3
2024-01-09T20:13:34.640Z,29.8
2024-01-09T20:15:34.229Z,36
2024-01-09T20:17:33.894Z,34.3
2024-01-09T20:19:33.535Z,24
2024-01-09T20:21:33.107Z,24.6
2024-01-09T20:23:32.718Z,20.7
2024-01-09T20:25:32.348Z,20.2
2024-01-09T20:27:32.136Z,18.8
2024-01-09T20:29:31.814Z,18.9
2024-01-09T20:31:31.285Z,28.3
2024-01-09T20:33:30.961Z,152.1
2024-01-09T20:35:30.467Z,46.1
2024-01-09T20:37:30.075Z,42.8
2024-01-09T20:39:29.660Z,46.5
2024-01-09T20:41:29.375Z,34.9
2024-01-09T20:43:28.992Z,28.5
2024-01-09T20:45:28.564Z,19.8
2024-01-09T20:47:28.259Z,20.2
2024-01-09T20:49:27.956Z,19.5
2024-01-09T20:51:27.442Z,18.7
2024-01-09T20:53:27.102Z,25.6
2024-01-09T20:55:26.711Z,24.4
2024-01-09T20:57:26.310Z,24.3
2024-01-09T20:59:26.023Z,25.6
2024-01-09T21:01:25.700Z,31.5
2024-01-09T21:03:25.305Z,40.8
2024-01-09T21:05:24.969Z,47.7
2024-01-09T21:07:24.556Z,47.8
2024-01-09T21:09:24.137Z,56.4
2024-01-09T21:11:23.820Z,66.6
2024-01-09T21:13:23.361Z,66.3
2024-01-09T21:15:23.926Z,69.5
2024-01-09T21:17:22.730Z,72.8
2024-01-09T21:19:22.415Z,73.3
2024-01-09T21:21:21.868Z,72.9
2024-01-09T21:23:27.623Z,67.2
2024-01-09T21:25:21.187Z,72.1
2024-01-09T21:27:20.835Z,71.1
2024-01-09T21:29:20.497Z,66.8
2024-01-09T21:31:20.091Z,65.6
2024-01-09T21:33:19.722Z,68.4
2024-01-09T21:35:19.533Z,73
2024-01-09T21:37:18.939Z,77.6
2024-01-09T21:39:18.568Z,74.1
2024-01-09T21:41:18.317Z,64.3
2024-01-09T21:43:17.815Z,55.9
2024-01-09T21:45:17.428Z,54.4
2024-01-09T21:47:17.084Z,51.1
2024-01-09T21:49:16.794Z,48.4
2024-01-09T21:51:16.325Z,44.8
2024-01-09T21:53:15.958Z,44.5
2024-01-09T21:55:15.599Z,44.1
2024-01-09T21:57:15.162Z,43
2024-01-09T21:59:14.786Z,44
2024-01-09T22:01:14.497Z,72.5
2024-01-09T22:03:14.113Z,55.7
2024-01-09T22:05:13.684Z,43.2
2024-01-09T22:07:13.288Z,42.9
2024-01-09T22:09:12.971Z,41.4
2024-01-09T22:11:12.703Z,42.2
2024-01-09T22:13:12.177Z,42.2
2024-01-09T22:15:11.860Z,41.2
2024-01-09T22:17:11.536Z,42.2
2024-01-09T22:19:11.194Z,41.7
2024-01-09T22:21:10.808Z,42.4
2024-01-09T22:23:10.355Z,42.7
2024-01-09T22:25:10.012Z,41.8
2024-01-09T22:27:09.628Z,38.9
2024-01-09T22:29:09.304Z,38.6
2024-01-09T22:31:08.935Z,40.4
2024-01-09T22:33:08.629Z,40.6
2024-01-09T22:35:08.198Z,38.7
2024-01-09T22:37:07.804Z,35
2024-01-09T22:39:07.347Z,33.8
2024-01-09T22:41:07.065Z,33.9
2024-01-09T22:43:06.648Z,36.7
2024-01-09T22:45:06.330Z,39.4
2024-01-09T22:47:05.995Z,41
2024-01-09T22:49:05.607Z,35.1
2024-01-09T22:51:05.163Z,36.7
2024-01-09T22:53:04.833Z,35.7
2024-01-09T22:55:04.486Z,41.5
2024-01-09T22:57:04.067Z,44
2024-01-09T22:59:03.793Z,44.7
2024-01-09T23:01:03.435Z,40.5
2024-01-09T23:03:03.046Z,40.5
2024-01-09T23:05:02.844Z,37.5
2024-01-09T23:07:02.298Z,27.5
2024-01-09T23:09:01.914Z,17.9
2024-01-09T23:11:01.567Z,15.7
2024-01-09T23:13:01.134Z,15.6
2024-01-09T23:15:00.858Z,14.2
2024-01-09T23:17:00.528Z,14.9
2024-01-09T23:19:00.116Z,15.9
2024-01-09T23:20:59.696Z,16.5
2024-01-09T23:22:59.370Z,14.9
2024-01-09T23:24:59.014Z,13
2024-01-09T23:26:58.553Z,13
2024-01-09T23:28:58.231Z,11.9
2024-01-09T23:30:58.002Z,13.4
2024-01-09T23:32:58.868Z,13.5
2024-01-09T23:35:01.384Z,14
2024-01-09T23:36:56.693Z,14.5
2024-01-09T23:38:56.338Z,12.5
2024-01-09T23:40:56.005Z,11.6
2024-01-09T23:42:55.599Z,13.7
2024-01-09T23:44:56.296Z,13.8
2024-01-09T23:46:54.918Z,14.2
2024-01-09T23:48:54.505Z,12.1
2024-01-09T23:50:54.119Z,13.4
2024-01-09T23:52:53.775Z,13.4
2024-01-09T23:54:53.364Z,12.7
2024-01-09T23:56:53.025Z,13.2
2024-01-09T23:58:52.659Z,13.2
